Time;durP1;ratioP1;P1;durP2;ratioP2;P2;SDS_P1;SDS_P2;PMS_P1;PMS_P2;Temp;Humidity;BMP_temperature;BMP_pressure;BME280_temperature;BME280_humidity;BME280_pressure;Samples;Min_cycle;Max_cycle;Signal;HPM_P1;HPM_P2
2021/06/05 00:01:51;;;;;;;7.27;6.67;;;21.60;41.40;;;;;;4939284;29;20422;-80
2021/06/05 00:04:19;;;;;;;7.80;7.10;;;21.60;41.30;;;;;;4939472;29;20598;-81
2021/06/05 00:06:45;;;;;;;8.07;7.47;;;21.60;41.30;;;;;;4956289;29;20415;-81
2021/06/05 00:09:13;;;;;;;8.43;7.73;;;21.60;41.20;;;;;;4939215;29;20942;-81
2021/06/05 00:11:39;;;;;;;6.83;6.33;;;21.60;41.30;;;;;;4939144;29;20310;-81
2021/06/05 00:14:07;;;;;;;8.53;7.80;;;21.60;41.10;;;;;;4956580;28;20431;-82
2021/06/05 00:16:40;;;;;;;7.30;6.70;;;21.60;41.00;;;;;;4939312;29;20415;-80
2021/06/05 00:19:07;;;;;;;7.07;6.67;;;21.60;41.80;;;;;;4954941;28;20520;-80
2021/06/05 00:21:33;;;;;;;6.80;6.40;;;21.60;41.00;;;;;;4956307;28;20814;-80
2021/06/05 00:24:00;;;;;;;10.80;7.30;;;21.60;41.00;;;;;;4939214;29;20496;-80
2021/06/05 00:26:26;;;;;;;8.37;7.77;;;21.60;40.90;;;;;;4954869;28;20427;-80
2021/06/05 00:28:52;;;;;;;7.10;6.60;;;21.60;41.60;;;;;;4956019;29;20415;-80
2021/06/05 00:31:18;;;;;;;7.77;7.17;;;21.60;40.80;;;;;;4938838;29;20477;-80
2021/06/05 00:33:44;;;;;;;6.73;6.33;;;21.60;40.90;;;;;;4938558;29;20964;-80
2021/06/05 00:36:13;;;;;;;7.60;6.83;;;21.60;40.80;;;;;;4938555;29;20423;-80
2021/06/05 00:38:39;;;;;;;6.67;6.17;;;21.60;40.80;;;;;;4938481;29;20184;-80
2021/06/05 00:41:10;;;;;;;6.90;6.40;;;21.60;40.80;;;;;;4937604;29;20427;-80
2021/06/05 00:43:40;;;;;;;7.10;6.50;;;21.60;40.70;;;;;;4938248;29;20446;-80
2021/06/05 00:46:06;;;;;;;6.67;6.17;;;21.60;40.80;;;;;;4937823;29;21082;-81
2021/06/05 00:48:31;;;;;;;8.00;7.30;;;21.60;40.70;;;;;;4937852;29;20423;-80
2021/06/05 00:50:58;;;;;;;7.57;7.00;;;21.60;40.70;;;;;;4938179;29;20214;-81
2021/06/05 00:53:26;;;;;;;6.67;6.17;;;21.60;40.70;;;;;;4939032;29;20255;-80
2021/06/05 00:55:53;;;;;;;7.53;6.80;;;21.60;40.60;;;;;;4956042;29;20894;-81
2021/06/05 00:58:20;;;;;;;6.63;6.13;;;21.50;40.50;;;;;;4939160;29;20847;-81
2021/06/05 01:01:15;;;;;;;7.50;6.90;;;21.60;40.60;;;;;;4956070;28;20419;-81
2021/06/05 01:03:41;;;;;;;9.13;7.00;;;21.50;40.60;;;;;;4934960;29;20443;-81
2021/06/05 01:06:13;;;;;;;6.87;6.30;;;21.60;40.60;;;;;;4938619;29;20792;-81
2021/06/05 01:08:56;;;;;;;6.23;5.83;;;21.50;40.50;;;;;;4956081;29;20422;-81
2021/06/05 01:11:32;;;;;;;7.00;6.50;;;21.50;40.50;;;;;;4955891;29;20462;-81
2021/06/05 01:14:28;;;;;;;6.93;6.50;;;21.50;40.50;;;;;;4955614;28;20476;-81
2021/06/05 01:16:59;;;;;;;6.50;6.10;;;21.60;40.60;;;;;;4955752;29;20782;-81
2021/06/05 01:19:46;;;;;;;7.10;6.60;;;21.50;40.40;;;;;;4938669;29;20463;-81
2021/06/05 01:22:35;;;;;;;6.60;6.10;;;21.50;40.40;;;;;;4954357;28;20442;-81
2021/06/05 01:25:12;;;;;;;6.87;6.40;;;21.50;40.40;;;;;;4954917;29;20427;-82
2021/06/05 01:27:51;;;;;;;7.30;6.80;;;21.50;40.40;;;;;;4954652;29;20517;-81
2021/06/05 01:30:33;;;;;;;6.67;6.27;;;21.50;40.40;;;;;;4955901;29;20490;-81
2021/06/05 01:32:59;;;;;;;7.50;6.83;;;21.50;40.40;;;;;;4938689;29;20454;-81
2021/06/05 01:35:26;;;;;;;7.50;7.00;;;21.50;40.40;;;;;;4956040;28;20797;-81
2021/06/05 01:37:56;;;;;;;6.27;5.87;;;21.50;40.30;;;;;;4955955;29;20415;-81
2021/06/05 01:40:24;;;;;;;6.43;6.03;;;21.50;40.20;;;;;;4938456;29;20431;-82
2021/06/05 01:42:52;;;;;;;5.83;5.53;;;21.50;40.20;;;;;;4954341;28;20443;-82
2021/06/05 01:45:29;;;;;;;6.50;6.10;;;21.50;40.20;;;;;;4938255;29;20482;-81
2021/06/05 01:47:56;;;;;;;6.73;6.33;;;21.50;40.30;;;;;;4955828;29;20423;-81
2021/06/05 01:50:26;;;;;;;6.50;6.10;;;21.50;40.30;;;;;;4956643;29;20463;-81
2021/06/05 01:52:54;;;;;;;5.90;5.50;;;21.50;40.20;;;;;;4955951;28;20438;-81
2021/06/05 01:55:33;;;;;;;6.60;6.10;;;21.50;40.20;;;;;;4937770;29;20448;-81
2021/06/05 01:58:03;;;;;;;7.00;6.60;;;21.50;40.10;;;;;;4955715;29;20446;-81
2021/06/05 02:00:33;;;;;;;7.57;7.00;;;21.50;40.10;;;;;;4938037;29;20491;-80
2021/06/05 02:02:59;;;;;;;6.33;5.83;;;21.50;40.10;;;;;;4955309;28;20435;-80
2021/06/05 02:05:29;;;;;;;6.90;6.33;;;21.50;40.10;;;;;;4938733;29;20450;-82
2021/06/05 02:07:58;;;;;;;7.03;6.43;;;21.50;40.10;;;;;;4958835;29;20426;-80
2021/06/05 02:10:26;;;;;;;6.73;6.33;;;21.50;40.00;;;;;;4941498;29;20486;-81
2021/06/05 02:12:53;;;;;;;6.33;5.93;;;21.50;40.00;;;;;;4941300;29;20494;-81
2021/06/05 02:15:42;;;;;;;6.27;5.77;;;21.50;40.00;;;;;;4941445;29;20415;-81
2021/06/05 02:18:13;;;;;;;6.70;6.20;;;21.50;40.00;;;;;;4957235;29;20442;-81
2021/06/05 02:20:52;;;;;;;5.83;5.43;;;21.50;40.00;;;;;;4941778;28;20850;-81
2021/06/05 02:23:25;;;;;;;5.67;5.37;;;21.50;40.00;;;;;;4941438;29;20474;-81
2021/06/05 02:25:54;;;;;;;6.07;5.67;;;21.50;39.90;;;;;;4941248;29;20427;-80
2021/06/05 02:28:20;;;;;;;6.70;6.20;;;21.50;39.90;;;;;;4957710;28;20458;-81
2021/06/05 02:30:47;;;;;;;6.13;5.83;;;21.50;39.90;;;;;;4941541;29;20462;-80
2021/06/05 02:33:12;;;;;;;6.60;6.20;;;21.50;39.90;;;;;;4941049;29;20994;-81
2021/06/05 02:35:42;;;;;;;6.80;6.13;;;21.50;40.00;;;;;;4958677;29;20427;-81
2021/06/05 02:38:08;;;;;;;6.97;6.47;;;21.50;39.90;;;;;;4941545;29;20180;-81
2021/06/05 02:40:38;;;;;;;6.17;5.77;;;21.50;39.80;;;;;;4958550;29;20423;-82
2021/06/05 02:43:08;;;;;;;5.90;5.57;;;21.50;39.90;;;;;;4958160;28;20439;-80
2021/06/05 02:45:41;;;;;;;5.83;5.53;;;21.50;39.90;;;;;;4940768;29;20415;-81
2021/06/05 02:48:07;;;;;;;7.67;6.00;;;21.50;40.00;;;;;;4958524;29;20878;-80
2021/06/05 02:50:39;;;;;;;6.27;5.87;;;21.50;39.90;;;;;;4940179;29;20472;-80
2021/06/05 02:53:06;;;;;;;5.60;5.20;;;21.50;39.90;;;;;;4957754;28;20506;-81
2021/06/05 02:55:32;;;;;;;6.10;5.70;;;21.50;39.80;;;;;;4940637;29;20419;-80
2021/06/05 02:57:57;;;;;;;6.27;5.87;;;21.50;39.90;;;;;;4941274;29;20421;-80
2021/06/05 03:00:32;;;;;;;5.77;5.27;;;21.50;39.80;;;;;;4958236;29;20179;-81
2021/06/05 03:02:58;;;;;;;5.73;5.43;;;21.40;39.80;;;;;;4957935;28;20218;-81
2021/06/05 03:05:25;;;;;;;7.03;6.53;;;21.50;39.80;;;;;;4940481;29;20423;-80
2021/06/05 03:08:18;;;;;;;5.90;5.50;;;21.50;39.80;;;;;;4940557;29;20939;-81
2021/06/05 03:10:44;;;;;;;5.97;5.57;;;21.50;39.80;;;;;;4940328;29;20837;-81
2021/06/05 03:13:11;;;;;;;5.03;4.73;;;21.40;39.70;;;;;;4940600;29;20431;-82
2021/06/05 03:15:38;;;;;;;6.70;6.20;;;21.50;39.90;;;;;;4940355;29;20504;-80
2021/06/05 03:18:05;;;;;;;5.70;5.30;;;21.50;39.80;;;;;;4938994;29;20506;-81
2021/06/05 03:20:37;;;;;;;5.93;5.53;;;21.50;39.80;;;;;;4940216;28;20415;-81
2021/06/05 03:23:04;;;;;;;6.43;5.97;;;21.50;39.80;;;;;;4939720;29;20880;-81
2021/06/05 03:25:30;;;;;;;5.80;5.40;;;21.50;39.80;;;;;;4957444;28;20426;-81
2021/06/05 03:27:57;;;;;;;6.10;5.60;;;21.50;39.70;;;;;;4957206;29;20502;-81
2021/06/05 03:30:24;;;;;;;6.10;5.50;;;21.40;39.60;;;;;;4940146;29;20577;-81
2021/06/05 03:32:50;;;;;;;5.90;5.60;;;21.40;39.60;;;;;;4939679;29;20874;-82
2021/06/05 03:35:16;;;;;;;5.60;5.30;;;21.40;39.60;;;;;;4956791;29;20439;-80
2021/06/05 03:37:41;;;;;;;5.50;5.13;;;21.50;39.60;;;;;;4956661;29;20186;-81
2021/06/05 03:40:10;;;;;;;5.70;5.30;;;21.50;39.70;;;;;;4945043;28;20313;-80
2021/06/05 03:42:36;;;;;;;5.70;5.40;;;21.50;39.70;;;;;;4948444;28;20203;-80
2021/06/05 03:45:03;;;;;;;5.63;5.23;;;21.50;39.70;;;;;;4956393;29;20422;-80
2021/06/05 03:47:29;;;;;;;6.03;5.63;;;21.50;39.70;;;;;;4956397;29;20189;-81
2021/06/05 03:49:55;;;;;;;5.43;5.13;;;21.40;39.60;;;;;;4954369;29;20921;-81
2021/06/05 03:52:24;;;;;;;6.00;5.60;;;21.40;39.60;;;;;;4954543;28;21028;-81
2021/06/05 03:54:51;;;;;;;6.13;5.73;;;21.40;39.60;;;;;;4941918;28;20665;-81
2021/06/05 03:57:18;;;;;;;6.03;5.63;;;21.40;39.60;;;;;;4939382;29;20921;-81
2021/06/05 04:03:12;;;;;;;5.80;5.50;;;21.50;39.70;;;;;;4922894;28;21242;-81
2021/06/05 04:05:39;;;;;;;5.20;4.90;;;21.50;39.70;;;;;;4958006;28;20417;-80
2021/06/05 04:08:07;;;;;;;6.23;5.83;;;21.40;39.60;;;;;;4957678;28;20175;-81
2021/06/05 04:10:34;;;;;;;5.40;5.10;;;21.40;39.70;;;;;;4957253;28;20462;-80
2021/06/05 04:13:01;;;;;;;4.60;4.40;;;21.40;39.60;;;;;;4974902;28;20458;-81
2021/06/05 04:15:28;;;;;;;5.13;4.83;;;21.50;39.80;;;;;;4958954;28;20414;-80
2021/06/05 04:18:14;;;;;;;6.50;5.20;;;21.50;39.80;;;;;;4960660;28;20497;-81
2021/06/05 04:20:43;;;;;;;5.70;5.13;;;21.50;40.10;;;;;;4976154;28;20410;-81
2021/06/05 04:23:11;;;;;;;6.30;5.67;;;21.50;40.30;;;;;;4958279;28;20437;-80
2021/06/05 04:25:37;;;;;;;5.60;5.10;;;21.50;40.00;;;;;;4957775;28;20441;-80
2021/06/05 04:28:06;;;;;;;5.70;5.20;;;21.60;41.10;;;;;;4958958;28;21009;-80
2021/06/05 04:30:32;;;;;;;6.57;5.87;;;21.60;40.20;;;;;;4963825;28;20462;-80
2021/06/05 04:32:58;;;;;;;6.60;5.23;;;21.50;40.10;;;;;;4956483;28;20423;-80
2021/06/05 04:35:24;;;;;;;6.07;5.57;;;21.50;39.80;;;;;;4938339;29;20438;-80
2021/06/05 04:37:50;;;;;;;5.30;5.00;;;21.60;39.90;;;;;;4961007;28;20426;-86
2021/06/05 04:40:17;;;;;;;5.37;4.93;;;21.60;39.90;;;;;;4941436;29;20191;-80
2021/06/05 04:42:43;;;;;;;6.60;5.13;;;21.60;40.10;;;;;;4945271;28;20443;-80
2021/06/05 04:45:10;;;;;;;5.53;5.13;;;21.50;40.00;;;;;;4953845;29;20506;-80
2021/06/05 04:47:36;;;;;;;5.57;5.17;;;21.60;40.00;;;;;;4954174;29;20495;-80
2021/06/05 04:50:04;;;;;;;5.57;5.17;;;21.50;39.90;;;;;;4936342;29;20926;-80
2021/06/05 04:52:30;;;;;;;4.93;4.63;;;21.60;40.00;;;;;;4954347;28;20450;-82
2021/06/05 04:54:55;;;;;;;5.50;5.10;;;21.60;40.10;;;;;;4963559;28;20422;-79
2021/06/05 04:57:58;;;;;;;5.77;5.20;;;21.60;40.10;;;;;;4954978;29;20171;-80
2021/06/05 05:01:09;;;;;;;5.07;4.83;;;21.60;40.10;;;;;;4954907;29;20238;-80
2021/06/05 05:03:34;;;;;;;5.07;4.73;;;21.60;40.10;;;;;;4933681;29;20442;-80
2021/06/05 05:06:02;;;;;;;4.97;4.73;;;21.60;40.10;;;;;;4938812;29;20415;-80
2021/06/05 05:08:29;;;;;;;5.03;4.63;;;21.60;40.20;;;;;;4955673;29;20233;-80
2021/06/05 05:10:56;;;;;;;4.47;4.23;;;21.50;40.00;;;;;;4938249;29;20470;-80
2021/06/05 05:13:32;;;;;;;4.80;4.50;;;21.60;40.10;;;;;;4954724;28;20454;-80
2021/06/05 05:15:59;;;;;;;4.77;4.43;;;21.50;40.00;;;;;;4938139;29;20796;-80
2021/06/05 05:18:25;;;;;;;5.20;4.80;;;21.50;40.70;;;;;;4955796;28;20407;-80
2021/06/05 05:20:52;;;;;;;4.90;4.60;;;21.60;40.00;;;;;;4954310;28;20458;-80
2021/06/05 05:23:20;;;;;;;4.80;4.43;;;21.50;39.90;;;;;;4955859;28;20431;-80
2021/06/05 05:25:46;;;;;;;4.77;4.47;;;21.50;39.90;;;;;;4938116;29;20423;-80
2021/06/05 05:28:14;;;;;;;5.10;4.67;;;21.50;39.80;;;;;;4955556;29;20411;-80
2021/06/05 05:30:47;;;;;;;5.10;4.80;;;21.50;39.80;;;;;;4938391;29;20207;-80
2021/06/05 05:33:16;;;;;;;4.67;4.37;;;21.60;39.80;;;;;;4938507;29;20439;-80
2021/06/05 05:35:42;;;;;;;5.00;4.70;;;21.50;39.80;;;;;;4938695;29;20792;-79
2021/06/05 05:38:09;;;;;;;4.93;4.57;;;21.60;39.90;;;;;;4938614;29;20518;-80
2021/06/05 05:40:37;;;;;;;4.77;4.40;;;21.50;39.80;;;;;;4939133;29;20478;-81
2021/06/05 05:43:03;;;;;;;5.17;4.87;;;21.60;39.80;;;;;;4943339;29;20506;-81
2021/06/05 05:45:38;;;;;;;5.30;5.00;;;21.50;39.80;;;;;;4960789;29;20490;-81
2021/06/05 05:48:11;;;;;;;4.70;4.50;;;21.50;39.90;;;;;;4961967;29;20465;-82
2021/06/05 05:50:39;;;;;;;4.47;4.07;;;21.50;39.90;;;;;;4957668;28;20566;-79
2021/06/05 05:53:05;;;;;;;4.30;4.10;;;21.50;39.90;;;;;;4958027;28;20447;-80
2021/06/05 05:55:37;;;;;;;6.30;4.63;;;21.50;40.10;;;;;;4958773;29;20470;-79
2021/06/05 05:58:16;;;;;;;4.70;4.40;;;21.50;39.90;;;;;;4958411;29;20187;-80
2021/06/05 06:01:04;;;;;;;6.13;5.30;;;21.50;39.80;;;;;;4958728;29;20410;-80
2021/06/05 06:03:30;;;;;;;4.20;4.00;;;21.50;39.80;;;;;;4938658;29;20446;-80
2021/06/05 06:05:56;;;;;;;4.53;4.23;;;21.50;39.90;;;;;;4941382;29;20521;-79
2021/06/05 06:08:44;;;;;;;4.50;4.10;;;21.50;39.80;;;;;;4939012;29;20934;-79
2021/06/05 06:11:14;;;;;;;5.20;4.80;;;21.50;39.70;;;;;;4971063;28;20469;-80
2021/06/05 06:13:40;;;;;;;4.20;4.00;;;21.50;39.70;;;;;;4960733;28;20488;-79
2021/06/05 06:16:09;;;;;;;4.17;3.90;;;21.50;39.80;;;;;;4960060;28;20414;-80
2021/06/05 06:18:36;;;;;;;4.73;4.20;;;21.50;39.80;;;;;;4978005;28;20771;-79
2021/06/05 06:21:06;;;;;;;4.50;4.10;;;21.50;39.70;;;;;;4977620;28;20432;-80
2021/06/05 06:23:35;;;;;;;4.30;4.10;;;21.50;39.70;;;;;;4977227;28;20438;-79
2021/06/05 06:26:02;;;;;;;4.73;4.33;;;21.50;39.70;;;;;;4959956;28;20422;-79
2021/06/05 06:28:31;;;;;;;4.50;4.23;;;21.50;39.70;;;;;;4960053;28;20928;-79
2021/06/05 06:31:05;;;;;;;4.33;4.13;;;21.50;39.70;;;;;;4976211;28;20470;-79
2021/06/05 06:33:54;;;;;;;5.23;4.10;;;21.50;39.70;;;;;;4960526;28;20972;-79
2021/06/05 06:36:21;;;;;;;4.20;3.90;;;21.50;39.70;;;;;;4959316;28;20414;-79
2021/06/05 06:38:49;;;;;;;4.67;4.27;;;21.50;39.70;;;;;;4976931;28;20449;-81
2021/06/05 06:41:42;;;;;;;5.70;4.40;;;21.50;39.70;;;;;;4958317;28;20437;-79
2021/06/05 06:44:08;;;;;;;7.10;4.63;;;21.50;39.80;;;;;;4936715;29;20470;-79
2021/06/05 06:46:43;;;;;;;4.97;4.57;;;21.50;40.00;;;;;;4956843;29;20439;-79
2021/06/05 06:49:13;;;;;;;7.77;4.63;;;21.50;40.30;;;;;;4956629;29;20728;-77
2021/06/05 06:51:40;;;;;;;6.87;5.10;;;21.50;40.30;;;;;;4955127;28;20470;-79
2021/06/05 06:54:07;;;;;;;4.90;4.33;;;21.50;40.40;;;;;;4961447;28;20430;-78
2021/06/05 06:56:35;;;;;;;5.50;4.50;;;21.60;40.60;;;;;;4958878;28;20415;-81
2021/06/05 06:59:02;;;;;;;4.80;4.30;;;21.50;40.50;;;;;;4957601;29;20418;-78
2021/06/05 07:01:28;;;;;;;6.70;4.60;;;21.60;40.60;;;;;;4956406;28;20466;-77
2021/06/05 07:03:54;;;;;;;5.77;4.70;;;21.60;40.80;;;;;;4956210;28;20517;-77
2021/06/05 07:06:22;;;;;;;5.50;5.00;;;21.60;40.80;;;;;;4955891;29;20494;-78
2021/06/05 07:08:48;;;;;;;6.57;5.27;;;21.60;41.20;;;;;;4956319;29;20190;-77
2021/06/05 07:11:21;;;;;;;4.97;4.57;;;21.60;40.90;;;;;;4956538;29;20471;-78
2021/06/05 07:13:47;;;;;;;4.93;4.40;;;21.60;41.10;;;;;;4957565;28;20438;-78
2021/06/05 07:16:14;;;;;;;4.83;4.33;;;21.70;41.10;;;;;;4940983;29;20438;-79
2021/06/05 07:18:39;;;;;;;4.90;4.47;;;21.70;40.80;;;;;;4955652;28;20531;-76
2021/06/05 07:21:07;;;;;;;5.57;4.70;;;21.70;41.40;;;;;;4955843;29;20748;-77
2021/06/05 07:23:36;;;;;;;4.83;4.43;;;21.70;41.40;;;;;;4938229;29;20196;-76
2021/06/05 07:26:06;;;;;;;4.80;4.40;;;21.70;41.80;;;;;;4955469;29;20407;-77
2021/06/05 07:28:36;;;;;;;9.27;5.13;;;21.70;41.40;;;;;;4955584;29;20438;-76
2021/06/05 07:31:04;;;;;;;4.80;4.50;;;21.70;41.10;;;;;;4955369;29;20912;-77
2021/06/05 07:33:30;;;;;;;5.00;4.50;;;21.70;41.40;;;;;;4955453;28;20438;-76
2021/06/05 07:35:57;;;;;;;7.33;4.60;;;21.70;41.10;;;;;;4955479;29;20408;-77
2021/06/05 07:38:25;;;;;;;5.77;5.03;;;21.70;41.20;;;;;;4939320;29;20422;-76
2021/06/05 07:40:51;;;;;;;4.80;4.47;;;21.70;40.80;;;;;;4939206;29;20506;-76
2021/06/05 07:43:21;;;;;;;5.10;4.40;;;21.70;40.90;;;;;;4956215;28;20857;-77
2021/06/05 07:45:47;;;;;;;5.20;4.23;;;21.70;40.80;;;;;;4939260;29;20419;-77
2021/06/05 07:48:13;;;;;;;5.57;5.00;;;21.70;40.80;;;;;;4956574;29;20423;-78
2021/06/05 07:50:40;;;;;;;4.20;3.90;;;21.70;41.80;;;;;;4955113;29;20517;-77
2021/06/05 07:53:06;;;;;;;4.80;4.27;;;21.70;41.20;;;;;;4938203;29;20443;-78
2021/06/05 07:55:31;;;;;;;4.10;3.90;;;21.70;41.10;;;;;;4938519;29;20423;-80
2021/06/05 07:57:59;;;;;;;4.80;4.40;;;21.70;41.10;;;;;;4939666;29;20191;-80
2021/06/05 08:00:29;;;;;;;7.13;4.37;;;21.70;41.00;;;;;;4939118;29;20186;-79
2021/06/05 08:02:55;;;;;;;4.93;4.50;;;21.70;40.90;;;;;;4956706;28;21072;-78
2021/06/05 08:05:21;;;;;;;4.50;4.20;;;21.70;40.90;;;;;;4954909;29;20442;-77
2021/06/05 08:07:48;;;;;;;6.93;4.80;;;21.70;41.00;;;;;;4954182;29;20427;-77
2021/06/05 08:10:16;;;;;;;4.70;4.27;;;21.70;41.20;;;;;;4955355;29;20596;-78
2021/06/05 08:12:42;;;;;;;4.70;4.27;;;21.70;41.00;;;;;;4954915;28;20445;-77
2021/06/05 08:15:12;;;;;;;4.90;4.60;;;21.70;41.20;;;;;;4954813;29;20415;-77
2021/06/05 08:17:38;;;;;;;4.23;3.93;;;21.70;41.00;;;;;;4954879;29;20403;-77
2021/06/05 08:20:10;;;;;;;4.70;4.30;;;21.70;41.00;;;;;;4955160;29;20430;-76
2021/06/05 08:22:36;;;;;;;5.70;4.40;;;21.70;40.80;;;;;;4956211;28;20222;-77
2021/06/05 08:25:04;;;;;;;5.27;4.20;;;21.70;40.90;;;;;;4954425;29;20794;-77
2021/06/05 08:27:29;;;;;;;4.97;4.47;;;21.70;40.80;;;;;;4954564;29;20184;-77
2021/06/05 08:29:55;;;;;;;4.67;4.27;;;21.70;40.90;;;;;;4954640;29;20411;-77
2021/06/05 08:32:21;;;;;;;9.23;4.80;;;21.70;41.00;;;;;;4954676;28;20203;-77
2021/06/05 08:34:46;;;;;;;8.70;4.47;;;21.70;40.80;;;;;;4954356;29;20689;-77
2021/06/05 08:37:12;;;;;;;5.47;4.97;;;21.70;40.70;;;;;;4954629;29;20171;-77
2021/06/05 08:39:38;;;;;;;5.23;4.73;;;21.70;40.60;;;;;;4954778;29;20179;-78
2021/06/05 08:42:21;;;;;;;5.27;4.83;;;21.70;40.70;;;;;;4954446;28;20195;-77
2021/06/05 08:44:49;;;;;;;5.40;4.90;;;21.70;40.80;;;;;;4954438;29;20411;-77
2021/06/05 08:47:28;;;;;;;7.10;5.10;;;21.70;40.60;;;;;;4954357;29;20491;-76
2021/06/05 08:49:53;;;;;;;5.53;4.40;;;21.70;40.80;;;;;;4954661;28;20408;-77
2021/06/05 08:52:28;;;;;;;9.07;4.83;;;21.70;40.80;;;;;;4936902;28;20467;-77
2021/06/05 08:55:03;;;;;;;7.37;4.50;;;21.70;40.80;;;;;;4953977;29;20171;-77
2021/06/05 08:57:49;;;;;;;5.30;4.70;;;21.70;40.80;;;;;;4953983;29;20410;-77
2021/06/05 09:00:41;;;;;;;5.50;4.77;;;21.70;40.80;;;;;;4954085;29;20430;-77
2021/06/05 09:03:11;;;;;;;5.17;4.63;;;21.70;40.80;;;;;;4953977;28;20435;-77
2021/06/05 09:05:44;;;;;;;7.40;4.90;;;21.70;40.80;;;;;;4954308;29;20442;-77
2021/06/05 09:08:15;;;;;;;4.30;3.60;;;21.70;40.80;;;;;;4937093;29;20407;-77
2021/06/05 09:10:41;;;;;;;5.10;4.70;;;21.70;41.40;;;;;;4937046;29;20459;-77
2021/06/05 09:13:07;;;;;;;4.57;4.27;;;21.70;42.00;;;;;;4954145;28;20520;-77
2021/06/05 09:15:35;;;;;;;4.80;4.40;;;21.60;41.70;;;;;;4956179;28;20176;-77
2021/06/05 09:18:04;;;;;;;10.43;4.60;;;21.60;41.70;;;;;;4958360;29;20167;-77
2021/06/05 09:20:38;;;;;;;4.30;4.00;;;21.60;41.70;;;;;;4958152;28;20490;-77
2021/06/05 09:23:24;;;;;;;8.83;4.40;;;21.60;41.70;;;;;;4957578;28;20457;-77
2021/06/05 09:25:50;;;;;;;4.00;3.70;;;21.60;41.70;;;;;;4941066;29;20415;-76
2021/06/05 09:28:29;;;;;;;4.17;3.77;;;21.60;41.70;;;;;;4958252;29;20415;-78
2021/06/05 09:31:14;;;;;;;8.73;4.77;;;21.60;41.70;;;;;;4958419;28;20534;-78
2021/06/05 09:33:40;;;;;;;4.13;3.83;;;21.60;42.10;;;;;;4958404;28;21008;-79
2021/06/05 09:36:34;;;;;;;4.20;3.90;;;21.60;41.90;;;;;;4941497;29;20429;-77
2021/06/05 09:39:06;;;;;;;3.87;3.67;;;21.60;42.20;;;;;;4956549;29;20407;-77
2021/06/05 09:41:35;;;;;;;4.37;3.43;;;21.50;42.40;;;;;;4941459;29;20493;-76
2021/06/05 09:44:19;;;;;;;3.70;3.50;;;21.50;42.70;;;;;;4956976;28;20442;-77
2021/06/05 09:46:56;;;;;;;3.73;3.53;;;21.50;43.00;;;;;;4957286;29;20415;-77
2021/06/05 09:49:33;;;;;;;4.27;3.93;;;21.50;43.10;;;;;;4958115;28;20764;-77
2021/06/05 09:52:13;;;;;;;3.50;3.27;;;21.50;43.40;;;;;;4958313;28;20919;-76
2021/06/05 09:54:40;;;;;;;3.83;3.20;;;21.50;43.40;;;;;;4958199;29;20909;-76
2021/06/05 09:57:31;;;;;;;3.63;3.30;;;21.50;43.20;;;;;;4958227;29;20407;-77
2021/06/05 10:00:24;;;;;;;3.47;3.20;;;21.50;43.20;;;;;;4961190;28;20453;-76
2021/06/05 10:02:53;;;;;;;4.27;3.07;;;21.50;43.70;;;;;;4957135;28;20430;-78
2021/06/05 10:05:23;;;;;;;3.80;3.50;;;21.50;43.90;;;;;;4958509;29;20429;-77
2021/06/05 10:07:50;;;;;;;4.43;3.27;;;21.50;44.10;;;;;;4962795;28;20414;-77
2021/06/05 10:10:36;;;;;;;7.80;3.83;;;21.50;44.00;;;;;;4963569;28;20415;-77
2021/06/05 10:13:07;;;;;;;3.30;3.20;;;21.50;44.00;;;;;;4959306;28;20445;-77
2021/06/05 10:15:58;;;;;;;3.70;3.40;;;21.50;44.70;;;;;;4956970;29;20450;-76
2021/06/05 10:18:44;;;;;;;3.30;3.10;;;21.50;44.40;;;;;;4958322;29;20422;-77
2021/06/05 10:21:35;;;;;;;3.57;3.37;;;21.50;44.60;;;;;;4954847;28;20443;-77
2021/06/05 10:24:33;;;;;;;3.83;3.57;;;21.50;44.50;;;;;;4956368;28;20453;-77
2021/06/05 10:27:04;;;;;;;3.57;3.37;;;21.50;44.60;;;;;;4953573;28;20430;-76
2021/06/05 10:29:42;;;;;;;3.53;3.40;;;21.50;45.50;;;;;;4956127;29;20426;-76
2021/06/05 10:32:11;;;;;;;3.50;3.30;;;21.50;44.60;;;;;;4957563;28;20505;-76
2021/06/05 10:34:48;;;;;;;3.60;3.40;;;21.50;44.50;;;;;;4954067;29;20458;-77
2021/06/05 10:37:22;;;;;;;3.90;3.60;;;21.50;44.00;;;;;;4939555;29;20457;-76
2021/06/05 10:39:49;;;;;;;3.53;3.23;;;21.60;43.60;;;;;;4947032;29;20434;-76
2021/06/05 10:42:32;;;;;;;4.17;3.63;;;21.60;44.30;;;;;;4956042;28;20418;-76
2021/06/05 10:44:58;;;;;;;3.70;3.50;;;21.60;45.50;;;;;;4935934;29;20431;-76
2021/06/05 10:47:28;;;;;;;3.60;3.30;;;21.60;44.80;;;;;;4938427;29;20522;-76
2021/06/05 10:50:14;;;;;;;3.77;3.57;;;21.60;44.90;;;;;;4948515;29;20434;-77
2021/06/05 10:53:26;;;;;;;3.73;3.13;;;21.60;45.00;;;;;;4946974;28;20437;-77
2021/06/05 10:55:59;;;;;;;5.40;3.47;;;21.60;45.00;;;;;;4946239;29;20453;-77
2021/06/05 10:58:53;;;;;;;3.80;3.60;;;21.60;44.60;;;;;;4939173;29;20793;-75
2021/06/05 11:01:28;;;;;;;3.43;3.23;;;21.60;44.60;;;;;;4938997;29;20842;-77
2021/06/05 11:04:17;;;;;;;4.53;3.80;;;21.70;45.10;;;;;;4956696;28;20450;-76
2021/06/05 11:07:06;;;;;;;3.77;3.57;;;21.70;45.20;;;;;;4957001;28;20470;-79
2021/06/05 11:09:32;;;;;;;7.07;4.00;;;21.60;45.90;;;;;;4954015;29;20454;-77
2021/06/05 11:12:15;;;;;;;3.70;3.47;;;21.70;45.90;;;;;;4960781;29;20462;-79
2021/06/05 11:14:48;;;;;;;4.50;4.03;;;21.70;46.00;;;;;;4967072;28;20531;-77
2021/06/05 11:17:26;;;;;;;4.43;4.00;;;21.60;45.60;;;;;;4943397;29;20504;-78
2021/06/05 11:20:19;;;;;;;3.40;3.20;;;21.70;45.60;;;;;;4956767;29;20524;-78
2021/06/05 11:22:47;;;;;;;3.77;3.57;;;21.70;45.70;;;;;;4956304;28;20461;-77
2021/06/05 11:25:14;;;;;;;4.77;4.03;;;21.70;46.30;;;;;;4954884;29;20925;-77
2021/06/05 11:27:40;;;;;;;3.77;3.53;;;21.70;45.80;;;;;;4963481;28;20418;-76
2021/06/05 11:30:26;;;;;;;3.50;3.30;;;21.70;47.60;;;;;;4955612;29;20427;-77
2021/06/05 11:33:09;;;;;;;3.87;3.67;;;21.70;46.90;;;;;;4955001;28;20207;-78
2021/06/05 11:35:59;;;;;;;3.30;3.10;;;21.70;46.80;;;;;;4921077;29;20444;-77
2021/06/05 11:38:24;;;;;;;3.70;3.30;;;21.70;46.00;;;;;;4935724;29;20405;-77
2021/06/05 11:41:01;;;;;;;3.30;3.20;;;21.70;46.50;;;;;;4935751;29;20431;-77
2021/06/05 11:43:48;;;;;;;3.60;3.40;;;21.60;46.70;;;;;;4935031;29;20203;-76
2021/06/05 11:46:22;;;;;;;3.30;3.10;;;21.60;47.30;;;;;;4934846;29;20424;-76
2021/06/05 11:48:50;;;;;;;3.63;3.43;;;21.70;46.80;;;;;;4935683;29;20422;-77
2021/06/05 11:51:22;;;;;;;7.13;3.80;;;21.70;46.40;;;;;;4934160;29;20556;-77
2021/06/05 11:54:11;;;;;;;3.73;3.53;;;21.70;45.70;;;;;;4938770;29;20432;-75
2021/06/05 11:57:09;;;;;;;3.50;3.30;;;21.70;46.50;;;;;;4934915;29;20450;-75
2021/06/05 11:59:45;;;;;;;3.17;3.07;;;21.70;45.80;;;;;;4934741;29;20424;-77
2021/06/05 12:02:27;;;;;;;3.63;3.30;;;21.70;46.30;;;;;;4934125;29;20427;-77
2021/06/05 12:04:57;;;;;;;3.83;3.53;;;21.70;45.70;;;;;;4935679;29;20444;-77
2021/06/05 12:07:34;;;;;;;3.47;3.27;;;21.70;45.40;;;;;;4934847;29;20408;-76
2021/06/05 12:10:00;;;;;;;4.23;4.03;;;21.80;46.10;;;;;;4935349;29;20997;-75
2021/06/05 12:12:30;;;;;;;3.47;3.27;;;21.70;45.10;;;;;;4934235;29;20468;-75
2021/06/05 12:15:21;;;;;;;3.70;3.60;;;21.70;46.40;;;;;;4935740;29;20172;-76
2021/06/05 12:18:10;;;;;;;4.07;3.87;;;21.80;45.90;;;;;;4933807;29;20475;-77
2021/06/05 12:21:01;;;;;;;3.30;3.20;;;21.80;45.80;;;;;;4921593;29;20958;-76
2021/06/05 12:26:56;;;;;;;4.10;3.80;;;21.80;45.20;;;;;;4935604;29;21009;-77
2021/06/05 12:29:30;;;;;;;7.10;4.37;;;21.80;44.80;;;;;;4935344;29;20422;-76
2021/06/05 12:31:57;;;;;;;4.03;3.60;;;21.80;45.00;;;;;;4935275;29;20879;-76
2021/06/05 12:34:36;;;;;;;3.70;3.47;;;21.80;45.90;;;;;;4918232;29;20440;-77
2021/06/05 12:37:16;;;;;;;4.57;4.10;;;21.80;45.60;;;;;;4935194;29;20443;-77
2021/06/05 12:39:52;;;;;;;4.10;3.60;;;21.80;45.20;;;;;;4935071;29;20411;-77
2021/06/05 12:42:29;;;;;;;7.00;3.80;;;21.80;45.90;;;;;;4934026;29;20423;-78
2021/06/05 12:45:05;;;;;;;3.93;3.63;;;21.80;45.30;;;;;;4915747;29;21067;-77
2021/06/05 12:48:03;;;;;;;3.93;3.73;;;21.80;44.90;;;;;;4933302;29;20426;-77
2021/06/05 12:50:49;;;;;;;4.13;3.87;;;21.80;44.80;;;;;;4928864;29;20456;-75
2021/06/05 12:53:24;;;;;;;4.17;3.97;;;21.80;45.00;;;;;;4935902;29;20439;-75
2021/06/05 12:55:57;;;;;;;3.63;3.43;;;21.80;44.80;;;;;;4934203;29;20266;-75
2021/06/05 12:58:39;;;;;;;3.57;3.43;;;21.80;45.00;;;;;;4944990;28;20798;-76
2021/06/05 13:01:29;;;;;;;3.50;3.30;;;21.90;44.50;;;;;;4935187;29;20435;-76
2021/06/05 13:03:56;;;;;;;4.00;3.80;;;21.90;44.40;;;;;;4947929;28;20434;-76
2021/06/05 13:06:28;;;;;;;3.80;3.43;;;21.80;44.20;;;;;;4954411;28;20787;-75
2021/06/05 13:09:14;;;;;;;3.53;3.30;;;21.80;44.80;;;;;;4973159;28;20900;-76
2021/06/05 13:12:18;;;;;;;3.50;3.20;;;21.80;44.00;;;;;;4956109;28;20458;-83
2021/06/05 13:14:44;;;;;;;4.13;3.17;;;21.90;44.30;;;;;;4946522;28;20804;-75
2021/06/05 13:17:13;;;;;;;4.20;3.80;;;21.90;43.90;;;;;;4972835;28;20833;-76
2021/06/05 13:19:38;;;;;;;3.73;3.00;;;21.90;43.50;;;;;;4970510;28;20468;-76
2021/06/05 13:22:16;;;;;;;2.77;2.67;;;21.90;43.10;;;;;;4972571;28;21016;-76